Estherville Municipal Airport
Tuesday 10:52 AM
Weather Sunny
Temperature 72°
Dew Point 61°
Feels Like
Relative Humidity 68
%
Visibility 10
mi
Pressure 1013.9
mb
Wind Direction SSE
Wind Speed 9
mph
Last Hour Precip 0.00
"
KEST 281552Z AUTO 16008KT 10SM CLR 22/16 A2994 RMK AO2 SLP133 T02220161

Recent Observations

Time Present Weather Temp DP Feels RH% Vsby Pressure Ceiling Direction Speed Gust 1h Precip
10:52AM
VFR
72° 61° 68
%
10
mi
1013.9
mb
None SSE 9
mph
0.00"
KEST 281552Z AUTO 16008KT 10SM CLR 22/16 A2994 RMK AO2 SLP133 T02220161
9:52AM
VFR
67° 60° 79
%
10
mi
1013.9
mb
None SSE 9
mph
0.00"
KEST 281452Z AUTO 15008KT 10SM CLR 19/16 A2994 RMK AO2 SLP135 T01940156 51005
8:52AM
VFR
60° 57° 89
%
10
mi
1013.9
mb
None SSE 6
mph
0.00"
KEST 281352Z AUTO 15005KT 10SM CLR 16/14 A2994 RMK AO2 SLP135 T01560139
7:52AM
VFR
51° 50° 96
%
7
mi
1013.5
mb
None ESE 5
mph
0.00"
KEST 281252Z AUTO 12004KT 7SM CLR 11/10 A2993 RMK AO2 SLP136 T01060100
6:52AM
VFR
53° 51° 93
%
10
mi
1013.2
mb
None E 5
mph
0.00"
KEST 281152Z AUTO 10004KT 10SM CLR 12/11 A2992 RMK AO2 SLP129 T01170106 10128 20089 53006
5:52AM
VFR
50° 49° 96
%
10
mi
1013.2
mb
None Calm 0.00"
KEST 281052Z AUTO 00000KT 10SM CLR 10/09 A2992 RMK AO2 SLP127 T01000094
4:52AM
VFR
54° 52° 93
%
10
mi
1012.5
mb
None S 5
mph
0.00"
KEST 280952Z AUTO 17004KT 10SM CLR 12/11 A2990 RMK AO2 SLP119 T01220111
3:52AM
VFR
54° 51° 90
%
10
mi
1012.5
mb
None SE 6
mph
0.00"
KEST 280852Z AUTO 14005KT 10SM CLR 12/11 A2990 RMK AO2 SLP120 T01220106 58005
2:52AM
VFR
55° 49° 80
%
10
mi
1012.9
mb
None SE 5
mph
0.00"
KEST 280752Z AUTO 14004KT 10SM CLR 13/09 A2991 RMK AO2 SLP124 T01280094
1:52AM
VFR
54° 49° 83
%
10
mi
1013.2
mb
None E 5
mph
0.00"
KEST 280652Z AUTO 10004KT 10SM CLR 12/09 A2992 RMK AO2 SLP126 T01220094
12:52AM
VFR
55° 49° 80
%
10
mi
1013.2
mb
None ENE 6
mph
0.00"
KEST 280552Z AUTO 07005KT 10SM CLR 13/09 A2992 RMK AO2 SLP126 T01280094 10244 20117 402890117 51003
11:52PM
VFR
54° 49° 83
%
10
mi
1013.2
mb
None Calm 0.00"
KEST 280452Z AUTO 00000KT 10SM CLR 12/09 A2992 RMK AO2 SLP127 T01220094
10:52PM
VFR
57° 50° 77
%
10
mi
1013.2
mb
None Calm 0.00"
KEST 280352Z AUTO 00000KT 10SM CLR 14/10 A2992 RMK AO2 SLP127 T01390100
9:52PM
VFR
61° 51° 70
%
10
mi
1012.9
mb
None ENE 6
mph
0.00"
KEST 280252Z AUTO 06005KT 10SM CLR 16/11 A2991 RMK AO2 SLP123 T01610106 51010
8:52PM
VFR
64° 52° 65
%
10
mi
1012.5
mb
None ENE 6
mph
0.00"
KEST 280152Z AUTO 06005KT 10SM CLR 18/11 A2990 RMK AO2 SLP123 T01780111
7:52PM
VFR
69° 52° 54
%
10
mi
1012.2
mb
None E 7
mph
0.00"
KEST 280052Z AUTO 08006KT 10SM CLR 21/11 A2989 RMK AO2 SLP117 T02060111
6:52PM
VFR
76° 53° 45
%
9
mi
1011.9
mb
None NE 6
mph
0.00"
KEST 272352Z AUTO 05005KT 9SM CLR 24/12 A2988 RMK AO2 SLP113 T02440117 10289 20244 53011
5:52PM
VFR
81° 55° 81° 41
%
10
mi
1011.2
mb
None ENE 6
mph
0.00"
KEST 272252Z AUTO 06005KT 10SM CLR 27/13 A2986 RMK AO2 SLP106 T02720128
4:52PM
VFR
83° 54° 82° 37
%
10
mi
1010.8
mb
None NE 6
mph
0.00"
KEST 272152Z AUTO 04005KT 10SM CLR 28/12 A2985 RMK AO2 SLP102 T02830122
3:52PM
VFR
83° 57° 82° 41
%
10
mi
1010.5
mb
None NE 8
mph
0.00"
KEST 272052Z AUTO 05007KT 10SM CLR 28/14 A2984 RMK AO2 SLP099 T02830139 58007
Click here to show this page without METARs/TAFs included